createdAt,value
2019-01-20T00:01:07.175Z,-5.60
2019-01-20T00:03:35.576Z,-5.70
2019-01-20T00:06:03.967Z,-5.70
2019-01-20T00:08:32.431Z,-5.70
2019-01-20T00:11:02.448Z,-5.70
2019-01-20T00:13:30.849Z,-5.70
2019-01-20T00:16:00.351Z,-5.70
2019-01-20T00:18:29.389Z,-5.70
2019-01-20T00:20:57.860Z,-5.70
2019-01-20T00:23:26.700Z,-5.70
2019-01-20T00:25:55.088Z,-5.70
2019-01-20T00:28:23.508Z,-5.70
2019-01-20T00:30:51.884Z,-5.80
2019-01-20T00:33:20.282Z,-5.80
2019-01-20T00:35:48.664Z,-5.80
2019-01-20T00:38:17.457Z,-5.90
2019-01-20T00:40:45.842Z,-5.90
2019-01-20T00:43:14.341Z,-6.00
2019-01-20T00:45:42.696Z,-6.00
2019-01-20T00:48:11.096Z,-6.00
2019-01-20T00:50:39.749Z,-6.00
2019-01-20T00:53:08.157Z,-6.10
2019-01-20T00:55:36.533Z,-6.00
2019-01-20T00:58:05.390Z,-6.10
2019-01-20T01:00:33.777Z,-6.10
2019-01-20T01:03:02.560Z,-6.10
2019-01-20T01:05:30.935Z,-6.10
2019-01-20T01:07:59.337Z,-6.10
2019-01-20T01:10:28.130Z,-6.10
2019-01-20T01:12:57.034Z,-6.10
2019-01-20T01:15:25.415Z,-6.10
2019-01-20T01:17:53.892Z,-6.10
2019-01-20T01:20:22.364Z,-6.20
2019-01-20T01:22:51.118Z,-6.20
2019-01-20T01:25:19.568Z,-6.30
2019-01-20T01:27:47.945Z,-6.30
2019-01-20T01:30:19.052Z,-6.30
2019-01-20T01:32:47.489Z,-6.40
2019-01-20T01:35:15.968Z,-6.40
2019-01-20T01:37:44.348Z,-6.30
2019-01-20T01:40:15.357Z,-6.30
2019-01-20T01:42:43.800Z,-6.30
2019-01-20T01:45:14.645Z,-6.30
2019-01-20T01:47:43.021Z,-6.30
2019-01-20T01:50:12.140Z,-6.40
2019-01-20T01:52:40.512Z,-6.40
2019-01-20T01:55:09.858Z,-6.40
2019-01-20T01:57:38.303Z,-6.40
2019-01-20T02:00:12.863Z,-6.40
2019-01-20T02:02:41.365Z,-6.40
2019-01-20T02:05:10.048Z,-6.40
2019-01-20T02:07:38.460Z,-6.40
2019-01-20T02:10:10.123Z,-6.50
2019-01-20T02:12:39.751Z,-6.40
2019-01-20T02:15:10.397Z,-6.40
2019-01-20T02:17:38.803Z,-6.50
2019-01-20T02:20:10.772Z,-6.50
2019-01-20T02:22:39.255Z,-6.50
2019-01-20T02:25:07.653Z,-6.50
2019-01-20T02:27:36.028Z,-6.50
2019-01-20T02:30:07.965Z,-6.50
2019-01-20T02:32:36.648Z,-6.50
2019-01-20T02:35:06.009Z,-6.50
2019-01-20T02:37:34.391Z,-6.60
2019-01-20T02:40:03.119Z,-6.60
2019-01-20T02:42:32.058Z,-6.60
2019-01-20T02:45:00.482Z,-6.60
2019-01-20T02:47:28.976Z,-6.60
2019-01-20T02:49:57.390Z,-6.60
2019-01-20T02:52:25.779Z,-6.50
2019-01-20T02:54:54.227Z,-6.50
2019-01-20T02:57:22.640Z,-6.50
2019-01-20T02:59:51.081Z,-6.50
2019-01-20T03:02:19.437Z,-6.50
2019-01-20T03:04:47.841Z,-6.50
2019-01-20T03:07:16.219Z,-6.50
2019-01-20T03:09:44.690Z,-6.50
2019-01-20T03:12:13.332Z,-6.40
2019-01-20T03:14:41.846Z,-6.40
2019-01-20T03:17:10.238Z,-6.40
2019-01-20T03:19:38.648Z,-6.40
2019-01-20T03:22:07.096Z,-6.40
2019-01-20T03:24:35.497Z,-6.40
2019-01-20T03:27:03.883Z,-6.30
2019-01-20T03:29:32.282Z,-6.30
2019-01-20T03:32:00.681Z,-6.30
2019-01-20T03:34:29.076Z,-6.30
2019-01-20T03:36:57.760Z,-6.40
2019-01-20T03:39:26.179Z,-6.40
2019-01-20T03:41:54.598Z,-6.40
2019-01-20T03:44:22.962Z,-6.50
2019-01-20T03:46:51.397Z,-6.50
2019-01-20T03:49:19.774Z,-6.50
2019-01-20T03:51:48.171Z,-6.50
2019-01-20T03:54:16.553Z,-6.50
2019-01-20T03:56:44.951Z,-6.50
2019-01-20T03:59:13.339Z,-6.50
2019-01-20T04:01:41.731Z,-6.50
2019-01-20T04:04:10.127Z,-6.50
2019-01-20T04:06:38.548Z,-6.50
2019-01-20T04:09:07.453Z,-6.50
2019-01-20T04:11:35.857Z,-6.50
2019-01-20T04:14:04.250Z,-6.50
2019-01-20T04:16:32.657Z,-6.50
2019-01-20T04:19:01.390Z,-6.50
2019-01-20T04:21:29.943Z,-6.40
2019-01-20T04:23:58.380Z,-6.50
2019-01-20T04:26:26.816Z,-6.50
2019-01-20T04:28:55.195Z,-6.50
2019-01-20T04:31:23.648Z,-6.50
2019-01-20T04:33:52.036Z,-6.50
2019-01-20T04:36:20.436Z,-6.50
2019-01-20T04:38:48.861Z,-6.50
2019-01-20T04:41:17.411Z,-6.40
2019-01-20T04:43:45.771Z,-6.40
2019-01-20T04:46:14.187Z,-6.40
2019-01-20T04:48:43.009Z,-6.40
2019-01-20T04:51:11.401Z,-6.40
2019-01-20T04:53:40.838Z,-6.30
2019-01-20T04:56:09.245Z,-6.30
2019-01-20T04:58:38.024Z,-6.20
2019-01-20T05:01:06.436Z,-6.20
2019-01-20T05:03:34.906Z,-6.30
2019-01-20T05:06:03.973Z,-6.30
2019-01-20T05:08:32.379Z,-6.20
2019-01-20T05:11:00.785Z,-6.20
2019-01-20T05:13:29.165Z,-6.20
2019-01-20T05:15:57.829Z,-6.20
2019-01-20T05:18:26.215Z,-6.20
2019-01-20T05:20:54.702Z,-6.10
2019-01-20T05:23:23.531Z,-6.10
2019-01-20T05:25:51.901Z,-6.00
2019-01-20T05:28:20.322Z,-6.00
2019-01-20T05:30:48.696Z,-6.00
2019-01-20T05:33:17.192Z,-6.00
2019-01-20T05:35:45.911Z,-6.00
2019-01-20T05:38:14.361Z,-6.00
2019-01-20T05:40:42.721Z,-6.00
2019-01-20T05:43:11.125Z,-5.90
2019-01-20T05:45:39.707Z,-5.90
2019-01-20T05:48:08.126Z,-5.90
2019-01-20T05:50:36.663Z,-6.00
2019-01-20T05:53:05.063Z,-5.90
2019-01-20T05:55:33.771Z,-5.90
2019-01-20T05:58:02.177Z,-5.90
2019-01-20T06:00:31.041Z,-5.90
2019-01-20T06:02:59.549Z,-6.00
2019-01-20T06:05:27.897Z,-6.00
2019-01-20T06:07:56.306Z,-6.00
2019-01-20T06:10:24.682Z,-5.90
2019-01-20T06:12:54.164Z,-5.70
2019-01-20T06:15:23.572Z,-5.60
2019-01-20T06:17:51.978Z,-5.40
2019-01-20T06:20:20.370Z,-5.30
2019-01-20T06:22:48.800Z,-5.20
2019-01-20T06:25:17.208Z,-5.30
2019-01-20T06:27:45.681Z,-5.40
2019-01-20T06:30:25.607Z,-5.50
2019-01-20T06:32:54.309Z,-5.60
2019-01-20T06:35:22.689Z,-5.60
2019-01-20T06:37:51.107Z,-5.60
2019-01-20T06:40:19.483Z,-5.60
2019-01-20T06:42:47.889Z,-5.60
2019-01-20T06:45:16.575Z,-5.50
2019-01-20T06:47:44.975Z,-5.50
2019-01-20T06:50:15.975Z,-5.50
2019-01-20T06:52:44.390Z,-5.50
2019-01-20T06:55:13.318Z,-5.40
2019-01-20T06:57:42.051Z,-5.50
2019-01-20T07:00:13.651Z,-5.40
2019-01-20T07:02:42.068Z,-5.30
2019-01-20T07:05:10.455Z,-5.30
2019-01-20T07:07:38.870Z,-5.30
2019-01-20T07:10:12.720Z,-5.20
2019-01-20T07:12:41.184Z,-5.20
2019-01-20T07:15:12.719Z,-5.10
2019-01-20T07:17:41.128Z,-5.10
2019-01-20T07:20:11.672Z,-5.10
2019-01-20T07:22:40.072Z,-5.00
2019-01-20T07:25:09.157Z,-5.00
2019-01-20T07:27:37.576Z,-5.00
2019-01-20T07:30:09.528Z,-5.00
2019-01-20T07:32:37.932Z,-4.90
2019-01-20T07:35:07.852Z,-4.90
2019-01-20T07:37:36.252Z,-4.80
2019-01-20T07:40:08.069Z,-4.70
2019-01-20T07:42:36.540Z,-4.70
2019-01-20T07:45:07.880Z,-4.70
2019-01-20T07:47:36.271Z,-4.60
2019-01-20T07:50:16.721Z,-4.50
2019-01-20T07:52:45.135Z,-4.30
2019-01-20T07:55:13.544Z,-4.30
2019-01-20T07:57:41.944Z,-4.10
2019-01-20T08:00:13.986Z,-4.00
2019-01-20T08:02:42.304Z,-3.90
2019-01-20T08:05:10.841Z,-3.80
2019-01-20T08:07:39.251Z,-3.80
2019-01-20T08:10:16.556Z,-3.70
2019-01-20T08:12:44.929Z,-3.70
2019-01-20T08:15:14.387Z,-3.70
2019-01-20T08:17:42.761Z,-3.60
2019-01-20T08:20:13.677Z,-3.60
2019-01-20T08:22:42.077Z,-3.50
2019-01-20T08:25:11.410Z,-3.50
2019-01-20T08:27:39.792Z,-3.40
2019-01-20T08:30:17.126Z,-3.30
2019-01-20T08:32:45.645Z,-3.20
2019-01-20T08:35:14.685Z,-3.10
2019-01-20T08:37:43.070Z,-3.00
2019-01-20T08:40:25.701Z,-2.80
2019-01-20T08:42:54.164Z,-2.70
2019-01-20T08:45:31.822Z,-2.50
2019-01-20T08:48:03.494Z,-2.50
2019-01-20T08:50:32.103Z,-2.30
2019-01-20T08:53:00.431Z,-2.10
2019-01-20T08:55:28.905Z,-2.10
2019-01-20T08:57:57.338Z,-2.00
2019-01-20T09:00:26.012Z,-2.00
2019-01-20T09:02:54.848Z,-1.90
2019-01-20T09:05:23.267Z,-2.00
2019-01-20T09:07:51.812Z,-2.00
2019-01-20T09:10:22.904Z,-2.00
2019-01-20T09:12:51.564Z,-2.00
2019-01-20T09:15:19.977Z,-2.00
2019-01-20T09:17:48.360Z,-1.90
2019-01-20T09:20:17.039Z,-1.80
2019-01-20T09:22:45.427Z,-1.70
2019-01-20T09:25:14.782Z,-1.50
2019-01-20T09:27:43.312Z,-1.20
2019-01-20T09:30:20.700Z,-1.20
2019-01-20T09:32:49.132Z,-0.70
2019-01-20T09:35:17.576Z,-0.30
2019-01-20T09:37:47.592Z,0.00
2019-01-20T09:40:17.637Z,0.00
2019-01-20T09:42:46.566Z,0.50
2019-01-20T09:45:25.641Z,1.10
2019-01-20T09:47:56.036Z,1.60
2019-01-20T09:50:24.480Z,2.40
2019-01-20T09:52:53.889Z,3.30
2019-01-20T09:55:22.429Z,4.50
2019-01-20T09:57:50.928Z,5.80
2019-01-20T10:00:25.028Z,6.30
2019-01-20T10:02:53.577Z,6.70
2019-01-20T10:05:22.005Z,6.30
2019-01-20T10:07:50.379Z,6.90
2019-01-20T10:10:18.804Z,7.20
2019-01-20T10:12:47.326Z,8.00
2019-01-20T10:15:17.192Z,8.90
2019-01-20T10:17:45.668Z,9.30
2019-01-20T10:20:19.843Z,9.10
2019-01-20T10:22:48.192Z,8.80
2019-01-20T10:25:16.602Z,8.20
2019-01-20T10:27:44.973Z,6.60
2019-01-20T10:30:16.673Z,5.80
2019-01-20T10:32:47.965Z,4.80
2019-01-20T10:35:15.537Z,4.40
2019-01-20T10:37:43.988Z,4.20
2019-01-20T10:40:12.487Z,3.70
2019-01-20T10:42:41.308Z,3.20
2019-01-20T10:45:10.519Z,3.50
2019-01-20T10:47:39.594Z,3.40
2019-01-20T10:50:12.470Z,2.70
2019-01-20T10:52:41.213Z,3.20
2019-01-20T10:55:09.649Z,3.70
2019-01-20T10:57:38.116Z,4.10
2019-01-20T11:00:16.447Z,4.10
2019-01-20T11:02:44.940Z,4.10
2019-01-20T11:05:13.405Z,4.60
2019-01-20T11:07:41.761Z,4.90
2019-01-20T11:10:13.256Z,4.90
2019-01-20T11:12:41.633Z,5.00
2019-01-20T11:15:12.260Z,5.20
2019-01-20T11:17:40.735Z,5.30
2019-01-20T11:20:12.435Z,5.40
2019-01-20T11:22:40.878Z,4.60
2019-01-20T11:25:12.460Z,5.00
2019-01-20T11:27:40.852Z,5.00
2019-01-20T11:30:12.400Z,5.10
2019-01-20T11:32:42.492Z,5.00
2019-01-20T11:35:22.837Z,4.90
2019-01-20T11:37:51.380Z,5.00
2019-01-20T11:40:20.083Z,4.90
2019-01-20T11:42:48.460Z,4.70
2019-01-20T11:45:19.301Z,4.40
2019-01-20T11:47:47.676Z,4.10
2019-01-20T11:50:16.436Z,4.20
2019-01-20T11:52:44.934Z,4.00
2019-01-20T11:55:16.284Z,3.90
2019-01-20T11:57:44.670Z,3.60
2019-01-20T12:00:20.810Z,2.90
2019-01-20T12:02:50.859Z,2.90
2019-01-20T12:05:20.320Z,2.90
2019-01-20T12:07:48.648Z,2.80
2019-01-20T12:10:17.550Z,2.90
2019-01-20T12:12:53.333Z,3.00
2019-01-20T12:15:21.760Z,2.90
2019-01-20T12:17:51.778Z,2.30
2019-01-20T12:20:20.153Z,2.50
2019-01-20T12:22:48.564Z,2.50
2019-01-20T12:25:18.579Z,2.70
2019-01-20T12:27:47.025Z,2.70
2019-01-20T12:30:21.108Z,2.90
2019-01-20T12:32:49.501Z,2.90
2019-01-20T12:35:18.337Z,2.80
2019-01-20T12:37:47.054Z,2.90
2019-01-20T12:40:24.152Z,2.90
2019-01-20T12:42:52.554Z,2.60
2019-01-20T12:45:21.000Z,1.70
2019-01-20T12:47:49.601Z,2.00
2019-01-20T12:50:18.443Z,1.70
2019-01-20T12:52:47.022Z,1.80
2019-01-20T12:55:16.179Z,1.70
2019-01-20T12:57:44.850Z,1.60
2019-01-20T13:00:18.484Z,1.60
2019-01-20T13:02:47.049Z,1.50
2019-01-20T13:05:15.516Z,1.40
2019-01-20T13:07:43.892Z,1.50
2019-01-20T13:10:14.756Z,1.60
2019-01-20T13:12:43.823Z,1.90
2019-01-20T13:15:20.819Z,1.90
2019-01-20T13:17:49.195Z,2.10
2019-01-20T13:20:23.862Z,1.20
2019-01-20T13:22:52.251Z,1.30
2019-01-20T13:25:23.351Z,1.50
2019-01-20T13:27:51.957Z,1.80
2019-01-20T13:30:27.981Z,1.80
2019-01-20T13:32:56.701Z,2.00
2019-01-20T13:35:25.755Z,1.90
2019-01-20T13:38:00.556Z,2.00
2019-01-20T13:40:48.528Z,1.90
2019-01-20T13:43:16.906Z,2.00
2019-01-20T13:45:46.327Z,2.10
2019-01-20T13:48:14.873Z,2.30
2019-01-20T13:50:43.223Z,2.40
2019-01-20T13:53:11.628Z,2.60
2019-01-20T13:55:40.053Z,2.50
2019-01-20T13:58:08.429Z,2.50
2019-01-20T14:00:36.889Z,2.70
2019-01-20T14:03:05.301Z,2.90
2019-01-20T14:05:33.741Z,2.80
2019-01-20T14:08:02.502Z,2.60
2019-01-20T14:10:30.885Z,2.00
2019-01-20T14:12:59.395Z,2.10
2019-01-20T14:15:27.771Z,2.10
2019-01-20T14:17:56.452Z,1.50
2019-01-20T14:20:26.428Z,1.60
2019-01-20T14:22:54.968Z,1.70
2019-01-20T14:25:28.493Z,1.80
2019-01-20T14:27:56.880Z,1.70
2019-01-20T14:30:33.104Z,1.80
2019-01-20T14:33:01.902Z,1.80
2019-01-20T14:35:30.280Z,1.70
2019-01-20T14:37:58.686Z,1.70
2019-01-20T14:40:27.445Z,1.60
2019-01-20T14:42:55.930Z,1.70
2019-01-20T14:45:24.336Z,1.60
2019-01-20T14:47:52.747Z,1.60
2019-01-20T14:50:27.865Z,1.40
2019-01-20T14:52:56.340Z,1.20
2019-01-20T14:55:25.421Z,1.20
2019-01-20T14:57:54.000Z,1.00
2019-01-20T15:00:31.473Z,0.70
2019-01-20T15:02:59.908Z,0.70
2019-01-20T15:05:28.296Z,0.70
2019-01-20T15:07:57.001Z,0.60
2019-01-20T15:10:25.872Z,0.60
2019-01-20T15:12:54.494Z,0.70
2019-01-20T15:15:31.638Z,0.80
2019-01-20T15:18:00.190Z,0.80
2019-01-20T15:20:28.573Z,0.90
2019-01-20T15:22:56.945Z,0.90
2019-01-20T15:25:25.601Z,1.00
2019-01-20T15:27:53.964Z,0.90
2019-01-20T15:30:25.198Z,0.90
2019-01-20T15:32:53.738Z,0.90
2019-01-20T15:35:22.515Z,0.90
2019-01-20T15:37:50.910Z,0.90
2019-01-20T15:40:21.805Z,0.80
2019-01-20T15:42:50.177Z,0.80
2019-01-20T15:45:22.924Z,0.70
2019-01-20T15:47:52.550Z,0.70
2019-01-20T15:50:29.464Z,0.70
2019-01-20T15:52:57.958Z,0.70
2019-01-20T15:55:26.347Z,0.70
2019-01-20T15:57:54.820Z,0.60
2019-01-20T16:00:31.415Z,0.70
2019-01-20T16:02:59.872Z,0.60
2019-01-20T16:05:29.153Z,0.60
2019-01-20T16:07:57.619Z,0.60
2019-01-20T16:10:26.394Z,0.60
2019-01-20T16:12:55.311Z,0.70
2019-01-20T16:15:31.944Z,0.70
2019-01-20T16:18:00.395Z,0.60
2019-01-20T16:20:29.777Z,0.60
2019-01-20T16:22:58.487Z,0.50
2019-01-20T16:25:31.886Z,0.00
2019-01-20T16:28:00.305Z,-0.20
2019-01-20T16:30:31.472Z,0.00
2019-01-20T16:33:00.074Z,0.10
2019-01-20T16:35:28.455Z,-0.20
2019-01-20T16:37:58.180Z,-0.30
2019-01-20T16:40:26.588Z,-0.30
2019-01-20T16:42:55.410Z,-0.30
2019-01-20T16:45:34.134Z,-0.20
2019-01-20T16:48:02.749Z,-0.10
2019-01-20T16:50:31.141Z,0.00
2019-01-20T16:52:59.511Z,0.00
2019-01-20T16:55:28.095Z,0.10
2019-01-20T16:57:56.467Z,0.10
2019-01-20T17:00:34.104Z,0.10
2019-01-20T17:03:02.743Z,0.10
2019-01-20T17:05:31.140Z,0.10
2019-01-20T17:07:59.512Z,0.30
2019-01-20T17:10:31.442Z,0.40
2019-01-20T17:12:59.868Z,0.40
2019-01-20T17:15:30.805Z,0.40
2019-01-20T17:17:59.183Z,0.30
2019-01-20T17:20:27.621Z,0.30
2019-01-20T17:22:56.768Z,0.20
2019-01-20T17:25:26.834Z,0.20
2019-01-20T17:27:55.288Z,0.20
2019-01-20T17:30:26.939Z,0.00
2019-01-20T17:32:55.816Z,0.10
2019-01-20T17:35:24.460Z,0.10
2019-01-20T17:37:52.834Z,0.20
2019-01-20T17:40:23.268Z,0.20
2019-01-20T17:42:51.710Z,0.20
2019-01-20T17:45:28.534Z,0.10
2019-01-20T17:47:56.935Z,-0.10
2019-01-20T17:50:37.156Z,-0.10
2019-01-20T17:53:06.852Z,-0.10
2019-01-20T17:55:35.953Z,-0.20
2019-01-20T17:58:04.631Z,-0.10
2019-01-20T18:00:42.061Z,-0.10
2019-01-20T18:03:10.611Z,-0.20
2019-01-20T18:05:39.036Z,-0.10
2019-01-20T18:08:07.728Z,-0.10
2019-01-20T18:10:36.129Z,-0.30
2019-01-20T18:13:04.676Z,-0.20
2019-01-20T18:15:33.076Z,-0.20
2019-01-20T18:18:01.463Z,-0.10
2019-01-20T18:20:31.298Z,-0.10
2019-01-20T18:22:59.885Z,-0.10
2019-01-20T18:25:29.213Z,0.00
2019-01-20T18:27:57.710Z,0.00
2019-01-20T18:30:29.140Z,0.00
2019-01-20T18:32:57.590Z,0.10
2019-01-20T18:35:27.202Z,0.20
2019-01-20T18:37:55.765Z,0.00
2019-01-20T18:40:25.392Z,0.10
2019-01-20T18:42:53.788Z,0.20
2019-01-20T18:45:30.310Z,0.10
2019-01-20T18:47:58.720Z,0.10
2019-01-20T18:50:35.689Z,0.20
2019-01-20T18:53:04.747Z,0.20
2019-01-20T18:55:33.314Z,0.30
2019-01-20T18:58:02.234Z,0.20
2019-01-20T19:00:33.071Z,0.10
2019-01-20T19:03:01.508Z,0.10
2019-01-20T19:05:30.635Z,0.00
2019-01-20T19:07:59.232Z,-0.10
2019-01-20T19:10:27.715Z,0.00
2019-01-20T19:12:56.124Z,-0.10
2019-01-20T19:15:24.777Z,0.00
2019-01-20T19:17:53.168Z,0.00
2019-01-20T19:20:23.958Z,-0.10
2019-01-20T19:22:56.912Z,-0.20
2019-01-20T19:25:25.331Z,-0.10
2019-01-20T19:27:53.732Z,-0.20
2019-01-20T19:30:24.766Z,-0.30
2019-01-20T19:32:53.540Z,-0.20
2019-01-20T19:35:22.146Z,-0.30
2019-01-20T19:37:50.881Z,-0.30
2019-01-20T19:40:19.261Z,-0.40
2019-01-20T19:42:47.888Z,-0.30
2019-01-20T19:45:19.308Z,-0.30
2019-01-20T19:47:47.704Z,-0.30
2019-01-20T19:50:17.239Z,-0.30
2019-01-20T19:52:45.731Z,-0.30
2019-01-20T19:55:24.147Z,-0.30
2019-01-20T19:57:52.795Z,-0.30
2019-01-20T20:00:24.055Z,-0.50
2019-01-20T20:02:52.804Z,-0.40
2019-01-20T20:05:21.900Z,-0.40
2019-01-20T20:07:50.967Z,-0.50
2019-01-20T20:10:21.444Z,-0.60
2019-01-20T20:12:50.080Z,-0.50
2019-01-20T20:15:23.321Z,-0.50
2019-01-20T20:17:51.729Z,-0.50
2019-01-20T20:20:20.960Z,-0.40
2019-01-20T20:22:49.552Z,-0.40
2019-01-20T20:25:19.881Z,-0.40
2019-01-20T20:27:48.387Z,-0.50
2019-01-20T20:30:19.587Z,-0.50
2019-01-20T20:32:48.040Z,-0.50
2019-01-20T20:35:16.416Z,-0.50
2019-01-20T20:37:44.827Z,-0.40
2019-01-20T20:40:15.863Z,-0.40
2019-01-20T20:42:44.440Z,-0.40
2019-01-20T20:45:15.724Z,-0.40
2019-01-20T20:47:44.141Z,-0.30
2019-01-20T20:50:14.484Z,-0.30
2019-01-20T20:52:46.223Z,-0.30
2019-01-20T20:55:13.183Z,-0.20
2019-01-20T20:57:41.606Z,-0.30
2019-01-20T21:00:13.465Z,-0.20
2019-01-20T21:02:41.864Z,-0.30
2019-01-20T21:05:10.259Z,-0.20
2019-01-20T21:07:38.639Z,-0.10
2019-01-20T21:10:13.401Z,-0.10
2019-01-20T21:12:41.788Z,-0.30
2019-01-20T21:15:12.997Z,-0.30
2019-01-20T21:17:47.834Z,-0.20
2019-01-20T21:20:20.571Z,-0.10
2019-01-20T21:22:48.946Z,0.00
2019-01-20T21:25:17.356Z,-0.10
2019-01-20T21:27:45.741Z,-0.10
2019-01-20T21:30:17.162Z,0.00
2019-01-20T21:32:45.519Z,0.00
2019-01-20T21:35:13.921Z,0.00
2019-01-20T21:37:42.690Z,0.10
2019-01-20T21:40:13.712Z,0.10
2019-01-20T21:42:42.088Z,0.10
2019-01-20T21:45:12.231Z,0.10
2019-01-20T21:47:40.629Z,0.10
2019-01-20T21:50:21.207Z,0.10
2019-01-20T21:52:49.579Z,0.10
2019-01-20T21:55:17.975Z,0.00
2019-01-20T21:57:46.420Z,0.00
2019-01-20T22:00:20.311Z,0.10
2019-01-20T22:02:48.688Z,0.00
2019-01-20T22:05:17.084Z,0.00
2019-01-20T22:07:45.543Z,0.10
2019-01-20T22:10:20.388Z,0.10
2019-01-20T22:12:48.867Z,0.10
2019-01-20T22:15:17.462Z,0.10
2019-01-20T22:17:46.563Z,0.10
2019-01-20T22:20:16.912Z,0.10
2019-01-20T22:22:45.377Z,0.00
2019-01-20T22:25:13.825Z,0.10
2019-01-20T22:27:42.549Z,0.10
2019-01-20T22:30:22.590Z,0.10
2019-01-20T22:32:50.974Z,0.00
2019-01-20T22:35:19.443Z,0.00
2019-01-20T22:37:47.807Z,-0.10
2019-01-20T22:40:17.648Z,0.00
2019-01-20T22:42:46.156Z,0.00
2019-01-20T22:45:17.036Z,0.00
2019-01-20T22:47:45.413Z,-0.10
2019-01-20T22:50:14.622Z,-0.40
2019-01-20T22:52:43.179Z,-0.40
2019-01-20T22:55:13.738Z,-0.40
2019-01-20T22:57:42.610Z,-0.40
2019-01-20T23:00:39.665Z,-0.50
2019-01-20T23:03:08.141Z,-0.50
2019-01-20T23:05:36.544Z,-0.70
2019-01-20T23:08:05.257Z,-0.70
2019-01-20T23:10:33.776Z,-0.70
2019-01-20T23:13:02.186Z,-0.80
2019-01-20T23:15:30.565Z,-0.80
2019-01-20T23:17:58.973Z,-0.80
2019-01-20T23:20:27.339Z,-0.80
2019-01-20T23:22:55.721Z,-0.80
2019-01-20T23:25:24.120Z,-0.60
2019-01-20T23:27:52.523Z,-0.70
2019-01-20T23:30:20.940Z,-0.60
2019-01-20T23:32:49.796Z,-0.60
2019-01-20T23:35:18.207Z,-0.50
2019-01-20T23:37:46.587Z,-0.40
2019-01-20T23:40:16.219Z,-0.40
2019-01-20T23:42:44.598Z,-0.40
2019-01-20T23:45:13.445Z,-0.40
2019-01-20T23:47:42.204Z,-0.40
2019-01-20T23:50:15.173Z,-0.50
2019-01-20T23:52:43.598Z,-0.40
2019-01-20T23:55:12.611Z,-0.50
2019-01-20T23:57:40.989Z,-0.60
